sensor_id;sensor_type;location;lat;lon;timestamp;temperature;humidity
21019;DHT22;10667;51.056;3.732;2023-12-29T00:02:23;11.50;99.90
21019;DHT22;10667;51.056;3.732;2023-12-29T00:04:49;11.50;99.90
21019;DHT22;10667;51.056;3.732;2023-12-29T00:07:15;11.40;99.90
21019;DHT22;10667;51.056;3.732;2023-12-29T00:09:41;11.40;99.90
21019;DHT22;10667;51.056;3.732;2023-12-29T00:12:07;11.30;99.90
21019;DHT22;10667;51.056;3.732;2023-12-29T00:14:36;11.30;99.90
21019;DHT22;10667;51.056;3.732;2023-12-29T00:17:03;11.30;99.90
21019;DHT22;10667;51.056;3.732;2023-12-29T00:19:28;11.30;99.90
21019;DHT22;10667;51.056;3.732;2023-12-29T00:21:54;11.30;99.90
21019;DHT22;10667;51.056;3.732;2023-12-29T00:24:20;11.30;99.90
21019;DHT22;10667;51.056;3.732;2023-12-29T00:26:46;11.30;99.90
21019;DHT22;10667;51.056;3.732;2023-12-29T00:29:14;11.20;99.90
21019;DHT22;10667;51.056;3.732;2023-12-29T00:31:41;11.30;99.90
21019;DHT22;10667;51.056;3.732;2023-12-29T00:34:07;11.20;99.90
21019;DHT22;10667;51.056;3.732;2023-12-29T00:36:32;11.20;99.90
21019;DHT22;10667;51.056;3.732;2023-12-29T00:38:58;11.20;99.90
21019;DHT22;10667;51.056;3.732;2023-12-29T00:41:23;11.20;99.90
21019;DHT22;10667;51.056;3.732;2023-12-29T00:43:49;11.10;99.90
21019;DHT22;10667;51.056;3.732;2023-12-29T00:46:15;11.10;99.90
21019;DHT22;10667;51.056;3.732;2023-12-29T00:48:41;11.10;99.90
21019;DHT22;10667;51.056;3.732;2023-12-29T00:51:08;11.10;99.90
21019;DHT22;10667;51.056;3.732;2023-12-29T00:53:35;11.20;99.90
21019;DHT22;10667;51.056;3.732;2023-12-29T00:56:00;11.20;99.90
21019;DHT22;10667;51.056;3.732;2023-12-29T00:58:26;11.10;99.90
21019;DHT22;10667;51.056;3.732;2023-12-29T01:00:52;11.10;99.90
21019;DHT22;10667;51.056;3.732;2023-12-29T01:03:18;11.20;99.90
21019;DHT22;10667;51.056;3.732;2023-12-29T01:05:43;11.20;99.90
21019;DHT22;10667;51.056;3.732;2023-12-29T01:08:09;11.20;99.90
21019;DHT22;10667;51.056;3.732;2023-12-29T01:10:35;11.20;99.90
21019;DHT22;10667;51.056;3.732;2023-12-29T01:13:00;11.30;99.90
21019;DHT22;10667;51.056;3.732;2023-12-29T01:15:26;11.30;99.90
21019;DHT22;10667;51.056;3.732;2023-12-29T01:17:52;11.40;99.90
21019;DHT22;10667;51.056;3.732;2023-12-29T01:20:18;11.30;99.90
21019;DHT22;10667;51.056;3.732;2023-12-29T01:22:43;11.20;99.90
21019;DHT22;10667;51.056;3.732;2023-12-29T01:25:09;11.20;99.90
21019;DHT22;10667;51.056;3.732;2023-12-29T01:27:34;11.10;99.90
21019;DHT22;10667;51.056;3.732;2023-12-29T01:30:00;11.10;99.90
21019;DHT22;10667;51.056;3.732;2023-12-29T01:32:26;11.10;99.90
21019;DHT22;10667;51.056;3.732;2023-12-29T01:34:55;11.10;99.90
21019;DHT22;10667;51.056;3.732;2023-12-29T01:37:20;11.10;99.90
21019;DHT22;10667;51.056;3.732;2023-12-29T01:39:46;11.10;99.90
21019;DHT22;10667;51.056;3.732;2023-12-29T01:42:13;11.10;99.90
21019;DHT22;10667;51.056;3.732;2023-12-29T01:44:38;11.10;99.90
21019;DHT22;10667;51.056;3.732;2023-12-29T01:47:11;11.10;99.90
21019;DHT22;10667;51.056;3.732;2023-12-29T01:49:39;11.10;99.90
21019;DHT22;10667;51.056;3.732;2023-12-29T01:52:05;11.10;99.90
21019;DHT22;10667;51.056;3.732;2023-12-29T01:54:36;11.10;99.90
21019;DHT22;10667;51.056;3.732;2023-12-29T01:57:06;11.10;99.90
21019;DHT22;10667;51.056;3.732;2023-12-29T01:59:35;11.10;99.90
21019;DHT22;10667;51.056;3.732;2023-12-29T02:02:01;11.10;99.90
21019;DHT22;10667;51.056;3.732;2023-12-29T02:04:28;11.10;99.90
21019;DHT22;10667;51.056;3.732;2023-12-29T02:06:54;11.20;99.90
21019;DHT22;10667;51.056;3.732;2023-12-29T02:09:20;11.20;99.90
21019;DHT22;10667;51.056;3.732;2023-12-29T02:11:47;11.30;99.90
21019;DHT22;10667;51.056;3.732;2023-12-29T02:14:14;11.20;99.90
21019;DHT22;10667;51.056;3.732;2023-12-29T02:16:56;11.10;99.90
21019;DHT22;10667;51.056;3.732;2023-12-29T02:19:43;11.00;99.90
21019;DHT22;10667;51.056;3.732;2023-12-29T02:22:10;11.10;99.90
21019;DHT22;10667;51.056;3.732;2023-12-29T02:24:37;11.10;99.90
21019;DHT22;10667;51.056;3.732;2023-12-29T02:27:18;11.10;99.90
21019;DHT22;10667;51.056;3.732;2023-12-29T02:30:08;11.10;99.90
21019;DHT22;10667;51.056;3.732;2023-12-29T02:32:37;11.10;99.90
21019;DHT22;10667;51.056;3.732;2023-12-29T02:35:04;11.20;99.90
21019;DHT22;10667;51.056;3.732;2023-12-29T02:37:35;11.20;99.90
21019;DHT22;10667;51.056;3.732;2023-12-29T02:40:01;11.10;99.90
21019;DHT22;10667;51.056;3.732;2023-12-29T02:42:27;11.10;99.90
21019;DHT22;10667;51.056;3.732;2023-12-29T02:44:53;11.10;99.90
21019;DHT22;10667;51.056;3.732;2023-12-29T02:47:18;11.20;99.90
21019;DHT22;10667;51.056;3.732;2023-12-29T02:49:44;11.10;99.90
21019;DHT22;10667;51.056;3.732;2023-12-29T02:52:10;11.10;99.90
21019;DHT22;10667;51.056;3.732;2023-12-29T02:54:36;11.10;99.90
21019;DHT22;10667;51.056;3.732;2023-12-29T02:57:01;11.10;99.90
21019;DHT22;10667;51.056;3.732;2023-12-29T02:59:27;11.10;99.90
21019;DHT22;10667;51.056;3.732;2023-12-29T03:01:52;11.10;99.90
21019;DHT22;10667;51.056;3.732;2023-12-29T03:04:18;11.10;99.90
21019;DHT22;10667;51.056;3.732;2023-12-29T03:06:44;11.00;99.90
21019;DHT22;10667;51.056;3.732;2023-12-29T03:09:10;11.00;99.90
21019;DHT22;10667;51.056;3.732;2023-12-29T03:11:35;11.10;99.90
21019;DHT22;10667;51.056;3.732;2023-12-29T03:14:01;11.10;99.90
21019;DHT22;10667;51.056;3.732;2023-12-29T03:16:26;11.10;99.90
21019;DHT22;10667;51.056;3.732;2023-12-29T03:18:52;11.10;99.90
21019;DHT22;10667;51.056;3.732;2023-12-29T03:21:18;11.10;99.90
21019;DHT22;10667;51.056;3.732;2023-12-29T03:23:43;11.00;99.90
21019;DHT22;10667;51.056;3.732;2023-12-29T03:26:09;11.00;99.90
21019;DHT22;10667;51.056;3.732;2023-12-29T03:28:34;11.00;99.90
21019;DHT22;10667;51.056;3.732;2023-12-29T03:31:00;10.90;99.90
21019;DHT22;10667;51.056;3.732;2023-12-29T03:33:26;11.00;99.90
21019;DHT22;10667;51.056;3.732;2023-12-29T03:35:51;11.00;99.90
21019;DHT22;10667;51.056;3.732;2023-12-29T03:38:17;10.90;99.90
21019;DHT22;10667;51.056;3.732;2023-12-29T03:40:43;11.00;99.90
21019;DHT22;10667;51.056;3.732;2023-12-29T03:43:09;11.00;99.90
21019;DHT22;10667;51.056;3.732;2023-12-29T03:45:34;11.20;99.90
21019;DHT22;10667;51.056;3.732;2023-12-29T03:48:00;11.10;99.90
21019;DHT22;10667;51.056;3.732;2023-12-29T03:50:25;11.10;99.90
21019;DHT22;10667;51.056;3.732;2023-12-29T03:52:51;11.10;99.90
21019;DHT22;10667;51.056;3.732;2023-12-29T03:55:17;11.00;99.90
21019;DHT22;10667;51.056;3.732;2023-12-29T03:57:42;11.10;99.90
21019;DHT22;10667;51.056;3.732;2023-12-29T04:00:12;11.00;99.90
21019;DHT22;10667;51.056;3.732;2023-12-29T04:02:38;11.00;99.90
21019;DHT22;10667;51.056;3.732;2023-12-29T04:05:05;10.90;99.90
21019;DHT22;10667;51.056;3.732;2023-12-29T04:07:31;10.80;99.90
21019;DHT22;10667;51.056;3.732;2023-12-29T04:09:57;10.80;99.90
21019;DHT22;10667;51.056;3.732;2023-12-29T04:12:22;10.80;99.90
21019;DHT22;10667;51.056;3.732;2023-12-29T04:14:48;10.80;99.90
21019;DHT22;10667;51.056;3.732;2023-12-29T04:17:14;10.90;99.90
21019;DHT22;10667;51.056;3.732;2023-12-29T04:19:40;10.80;99.90
21019;DHT22;10667;51.056;3.732;2023-12-29T04:22:07;10.70;99.90
21019;DHT22;10667;51.056;3.732;2023-12-29T04:24:33;10.70;99.90
21019;DHT22;10667;51.056;3.732;2023-12-29T04:26:59;10.70;99.90
21019;DHT22;10667;51.056;3.732;2023-12-29T04:29:25;10.80;99.90
21019;DHT22;10667;51.056;3.732;2023-12-29T04:31:50;10.80;99.90
21019;DHT22;10667;51.056;3.732;2023-12-29T04:34:16;10.90;99.90
21019;DHT22;10667;51.056;3.732;2023-12-29T04:36:41;10.80;99.90
21019;DHT22;10667;51.056;3.732;2023-12-29T04:39:07;10.90;99.90
21019;DHT22;10667;51.056;3.732;2023-12-29T04:41:36;10.80;99.90
21019;DHT22;10667;51.056;3.732;2023-12-29T04:44:01;10.80;99.90
21019;DHT22;10667;51.056;3.732;2023-12-29T04:46:27;10.80;99.90
21019;DHT22;10667;51.056;3.732;2023-12-29T04:48:52;10.70;99.90
21019;DHT22;10667;51.056;3.732;2023-12-29T04:51:19;10.80;99.90
21019;DHT22;10667;51.056;3.732;2023-12-29T04:53:44;10.90;99.90
21019;DHT22;10667;51.056;3.732;2023-12-29T04:56:10;10.90;99.90
21019;DHT22;10667;51.056;3.732;2023-12-29T04:58:35;10.80;99.90
21019;DHT22;10667;51.056;3.732;2023-12-29T05:01:01;10.80;99.90
21019;DHT22;10667;51.056;3.732;2023-12-29T05:03:27;10.80;99.90
21019;DHT22;10667;51.056;3.732;2023-12-29T05:05:52;10.80;99.90
21019;DHT22;10667;51.056;3.732;2023-12-29T05:08:18;10.90;99.90
21019;DHT22;10667;51.056;3.732;2023-12-29T05:10:43;10.90;99.90
21019;DHT22;10667;51.056;3.732;2023-12-29T05:13:09;11.00;99.90
21019;DHT22;10667;51.056;3.732;2023-12-29T05:15:35;11.00;99.90
21019;DHT22;10667;51.056;3.732;2023-12-29T05:18:00;10.90;99.90
21019;DHT22;10667;51.056;3.732;2023-12-29T05:20:26;10.90;99.90
21019;DHT22;10667;51.056;3.732;2023-12-29T05:22:52;11.00;99.90
21019;DHT22;10667;51.056;3.732;2023-12-29T05:25:17;11.00;99.90
21019;DHT22;10667;51.056;3.732;2023-12-29T05:27:43;11.00;99.90
21019;DHT22;10667;51.056;3.732;2023-12-29T05:30:09;11.00;99.90
21019;DHT22;10667;51.056;3.732;2023-12-29T05:32:35;11.00;99.90
21019;DHT22;10667;51.056;3.732;2023-12-29T05:35:01;11.00;99.90
21019;DHT22;10667;51.056;3.732;2023-12-29T05:37:27;11.00;99.90
21019;DHT22;10667;51.056;3.732;2023-12-29T05:39:53;11.10;99.90
21019;DHT22;10667;51.056;3.732;2023-12-29T05:42:18;11.10;99.90
21019;DHT22;10667;51.056;3.732;2023-12-29T05:44:44;11.10;99.90
21019;DHT22;10667;51.056;3.732;2023-12-29T05:47:10;11.10;99.90
21019;DHT22;10667;51.056;3.732;2023-12-29T05:49:35;11.10;99.90
21019;DHT22;10667;51.056;3.732;2023-12-29T05:52:05;11.00;99.90
21019;DHT22;10667;51.056;3.732;2023-12-29T05:54:31;11.00;99.90
21019;DHT22;10667;51.056;3.732;2023-12-29T05:56:56;11.00;99.90
21019;DHT22;10667;51.056;3.732;2023-12-29T05:59:22;11.10;99.90
21019;DHT22;10667;51.056;3.732;2023-12-29T06:01:48;11.10;99.90
21019;DHT22;10667;51.056;3.732;2023-12-29T06:04:13;11.00;99.90
21019;DHT22;10667;51.056;3.732;2023-12-29T06:06:42;11.00;99.90
21019;DHT22;10667;51.056;3.732;2023-12-29T06:09:09;10.90;99.90
21019;DHT22;10667;51.056;3.732;2023-12-29T06:11:35;11.00;99.90
21019;DHT22;10667;51.056;3.732;2023-12-29T06:14:01;11.00;99.90
21019;DHT22;10667;51.056;3.732;2023-12-29T06:16:27;11.00;99.90
21019;DHT22;10667;51.056;3.732;2023-12-29T06:18:55;10.90;99.90
21019;DHT22;10667;51.056;3.732;2023-12-29T06:21:20;10.80;99.90
21019;DHT22;10667;51.056;3.732;2023-12-29T06:23:46;10.80;99.90
21019;DHT22;10667;51.056;3.732;2023-12-29T06:26:19;10.80;99.90
21019;DHT22;10667;51.056;3.732;2023-12-29T06:28:47;10.80;99.90
21019;DHT22;10667;51.056;3.732;2023-12-29T06:31:13;10.90;99.90
21019;DHT22;10667;51.056;3.732;2023-12-29T06:33:43;10.90;99.90
21019;DHT22;10667;51.056;3.732;2023-12-29T06:36:09;11.00;99.90
21019;DHT22;10667;51.056;3.732;2023-12-29T06:38:35;11.00;99.90
21019;DHT22;10667;51.056;3.732;2023-12-29T06:41:04;10.90;99.90
21019;DHT22;10667;51.056;3.732;2023-12-29T06:43:30;10.90;99.90
21019;DHT22;10667;51.056;3.732;2023-12-29T06:45:56;10.80;99.90
21019;DHT22;10667;51.056;3.732;2023-12-29T06:48:22;10.80;99.90
21019;DHT22;10667;51.056;3.732;2023-12-29T06:50:48;10.80;99.90
21019;DHT22;10667;51.056;3.732;2023-12-29T06:53:13;10.80;99.90
21019;DHT22;10667;51.056;3.732;2023-12-29T06:55:40;10.80;99.90
21019;DHT22;10667;51.056;3.732;2023-12-29T06:58:05;10.80;99.90
21019;DHT22;10667;51.056;3.732;2023-12-29T07:00:31;10.70;99.90
21019;DHT22;10667;51.056;3.732;2023-12-29T07:02:57;10.70;99.90
21019;DHT22;10667;51.056;3.732;2023-12-29T07:05:22;10.80;99.90
21019;DHT22;10667;51.056;3.732;2023-12-29T07:07:48;10.80;99.90
21019;DHT22;10667;51.056;3.732;2023-12-29T07:10:14;10.70;99.90
21019;DHT22;10667;51.056;3.732;2023-12-29T07:12:40;10.70;99.90
21019;DHT22;10667;51.056;3.732;2023-12-29T07:15:06;10.70;99.90
21019;DHT22;10667;51.056;3.732;2023-12-29T07:17:32;10.70;99.90
21019;DHT22;10667;51.056;3.732;2023-12-29T07:19:58;10.70;99.90
21019;DHT22;10667;51.056;3.732;2023-12-29T07:22:23;10.80;99.90
21019;DHT22;10667;51.056;3.732;2023-12-29T07:24:49;10.80;99.90
21019;DHT22;10667;51.056;3.732;2023-12-29T07:27:15;10.90;99.90
21019;DHT22;10667;51.056;3.732;2023-12-29T07:29:41;10.90;99.90
21019;DHT22;10667;51.056;3.732;2023-12-29T07:32:06;10.90;99.90
21019;DHT22;10667;51.056;3.732;2023-12-29T07:34:32;10.90;99.90
21019;DHT22;10667;51.056;3.732;2023-12-29T07:36:58;11.00;99.90
21019;DHT22;10667;51.056;3.732;2023-12-29T07:39:24;11.00;99.90
21019;DHT22;10667;51.056;3.732;2023-12-29T07:41:50;11.00;99.90
21019;DHT22;10667;51.056;3.732;2023-12-29T07:44:16;11.00;99.90
21019;DHT22;10667;51.056;3.732;2023-12-29T07:46:43;11.10;99.90
21019;DHT22;10667;51.056;3.732;2023-12-29T07:49:10;11.10;99.90
21019;DHT22;10667;51.056;3.732;2023-12-29T07:51:39;11.10;99.90
21019;DHT22;10667;51.056;3.732;2023-12-29T07:54:06;11.00;99.90
21019;DHT22;10667;51.056;3.732;2023-12-29T07:56:32;10.90;99.90
21019;DHT22;10667;51.056;3.732;2023-12-29T07:58:58;10.90;99.90
21019;DHT22;10667;51.056;3.732;2023-12-29T08:01:23;10.80;99.90
21019;DHT22;10667;51.056;3.732;2023-12-29T08:03:49;10.70;99.90
21019;DHT22;10667;51.056;3.732;2023-12-29T08:06:14;10.70;99.90
21019;DHT22;10667;51.056;3.732;2023-12-29T08:08:41;10.70;99.90
21019;DHT22;10667;51.056;3.732;2023-12-29T08:11:15;10.70;99.90
21019;DHT22;10667;51.056;3.732;2023-12-29T08:13:43;10.60;99.90
21019;DHT22;10667;51.056;3.732;2023-12-29T08:16:09;10.60;99.90
21019;DHT22;10667;51.056;3.732;2023-12-29T08:18:34;10.70;99.90
21019;DHT22;10667;51.056;3.732;2023-12-29T08:21:01;10.70;99.90
21019;DHT22;10667;51.056;3.732;2023-12-29T08:23:27;10.60;99.90
21019;DHT22;10667;51.056;3.732;2023-12-29T08:25:52;10.70;99.90
21019;DHT22;10667;51.056;3.732;2023-12-29T08:28:18;10.70;99.90
21019;DHT22;10667;51.056;3.732;2023-12-29T08:30:44;10.70;99.90
21019;DHT22;10667;51.056;3.732;2023-12-29T08:33:11;10.70;99.90
21019;DHT22;10667;51.056;3.732;2023-12-29T08:35:40;10.80;99.90
21019;DHT22;10667;51.056;3.732;2023-12-29T08:38:06;10.80;99.90
21019;DHT22;10667;51.056;3.732;2023-12-29T08:40:32;10.90;99.90
21019;DHT22;10667;51.056;3.732;2023-12-29T08:42:57;10.90;99.90
21019;DHT22;10667;51.056;3.732;2023-12-29T08:45:23;10.90;99.90
21019;DHT22;10667;51.056;3.732;2023-12-29T08:47:49;10.90;99.90
21019;DHT22;10667;51.056;3.732;2023-12-29T08:50:14;11.00;99.90
21019;DHT22;10667;51.056;3.732;2023-12-29T08:52:41;11.00;99.90
21019;DHT22;10667;51.056;3.732;2023-12-29T08:55:07;11.00;99.90
21019;DHT22;10667;51.056;3.732;2023-12-29T08:57:33;11.00;99.90
21019;DHT22;10667;51.056;3.732;2023-12-29T08:59:59;11.00;99.90
21019;DHT22;10667;51.056;3.732;2023-12-29T09:02:25;11.00;99.90
21019;DHT22;10667;51.056;3.732;2023-12-29T09:04:51;11.10;99.90
21019;DHT22;10667;51.056;3.732;2023-12-29T09:07:16;11.20;99.90
21019;DHT22;10667;51.056;3.732;2023-12-29T09:09:42;11.20;99.90
21019;DHT22;10667;51.056;3.732;2023-12-29T09:12:08;11.30;99.90
21019;DHT22;10667;51.056;3.732;2023-12-29T09:14:33;11.30;99.90
21019;DHT22;10667;51.056;3.732;2023-12-29T09:17:00;11.30;99.90
21019;DHT22;10667;51.056;3.732;2023-12-29T09:19:26;11.40;99.90
21019;DHT22;10667;51.056;3.732;2023-12-29T09:21:52;11.40;99.90
21019;DHT22;10667;51.056;3.732;2023-12-29T09:24:17;11.40;99.90
21019;DHT22;10667;51.056;3.732;2023-12-29T09:26:43;11.50;99.90
21019;DHT22;10667;51.056;3.732;2023-12-29T09:29:08;11.50;99.90
21019;DHT22;10667;51.056;3.732;2023-12-29T09:31:34;11.50;99.90
21019;DHT22;10667;51.056;3.732;2023-12-29T09:34:01;11.50;99.90
21019;DHT22;10667;51.056;3.732;2023-12-29T09:36:27;11.50;99.90
21019;DHT22;10667;51.056;3.732;2023-12-29T09:38:52;11.50;99.90
21019;DHT22;10667;51.056;3.732;2023-12-29T09:41:20;11.50;99.90
21019;DHT22;10667;51.056;3.732;2023-12-29T09:43:50;11.60;99.90
21019;DHT22;10667;51.056;3.732;2023-12-29T09:46:17;11.60;99.90
21019;DHT22;10667;51.056;3.732;2023-12-29T09:48:46;11.60;99.90
21019;DHT22;10667;51.056;3.732;2023-12-29T09:51:13;11.60;99.90
21019;DHT22;10667;51.056;3.732;2023-12-29T09:53:40;11.60;99.90
21019;DHT22;10667;51.056;3.732;2023-12-29T09:56:08;11.50;99.90
21019;DHT22;10667;51.056;3.732;2023-12-29T09:58:34;11.50;99.90
21019;DHT22;10667;51.056;3.732;2023-12-29T10:01:03;11.50;99.90
21019;DHT22;10667;51.056;3.732;2023-12-29T10:03:30;11.50;99.90
21019;DHT22;10667;51.056;3.732;2023-12-29T10:05:56;11.50;99.90
21019;DHT22;10667;51.056;3.732;2023-12-29T10:08:26;11.50;99.90
21019;DHT22;10667;51.056;3.732;2023-12-29T10:10:57;11.50;99.90
21019;DHT22;10667;51.056;3.732;2023-12-29T10:13:23;11.50;99.90
21019;DHT22;10667;51.056;3.732;2023-12-29T10:16:00;11.50;99.90
21019;DHT22;10667;51.056;3.732;2023-12-29T10:21:27;11.50;99.90
21019;DHT22;10667;51.056;3.732;2023-12-29T10:26:27;11.50;99.90
21019;DHT22;10667;51.056;3.732;2023-12-29T10:28:53;11.60;99.90
21019;DHT22;10667;51.056;3.732;2023-12-29T10:31:19;11.80;99.90
21019;DHT22;10667;51.056;3.732;2023-12-29T10:33:44;11.80;99.90
21019;DHT22;10667;51.056;3.732;2023-12-29T10:36:15;11.80;99.90
21019;DHT22;10667;51.056;3.732;2023-12-29T10:38:41;11.70;99.90
21019;DHT22;10667;51.056;3.732;2023-12-29T10:41:19;11.70;99.90
21019;DHT22;10667;51.056;3.732;2023-12-29T10:43:46;11.80;99.90
21019;DHT22;10667;51.056;3.732;2023-12-29T10:46:13;11.80;99.90
21019;DHT22;10667;51.056;3.732;2023-12-29T10:48:39;12.00;99.90
21019;DHT22;10667;51.056;3.732;2023-12-29T10:51:05;12.00;99.90
21019;DHT22;10667;51.056;3.732;2023-12-29T10:53:32;11.90;99.90
21019;DHT22;10667;51.056;3.732;2023-12-29T10:55:58;11.90;99.90
21019;DHT22;10667;51.056;3.732;2023-12-29T10:58:28;12.00;99.90
21019;DHT22;10667;51.056;3.732;2023-12-29T11:00:58;12.00;99.90
21019;DHT22;10667;51.056;3.732;2023-12-29T11:03:25;12.10;99.90
21019;DHT22;10667;51.056;3.732;2023-12-29T11:05:58;12.00;99.90
21019;DHT22;10667;51.056;3.732;2023-12-29T11:08:25;12.00;99.90
21019;DHT22;10667;51.056;3.732;2023-12-29T11:10:51;12.10;99.90
21019;DHT22;10667;51.056;3.732;2023-12-29T11:13:16;12.10;99.90
21019;DHT22;10667;51.056;3.732;2023-12-29T11:15:46;12.10;99.90
21019;DHT22;10667;51.056;3.732;2023-12-29T11:18:18;12.10;99.90
21019;DHT22;10667;51.056;3.732;2023-12-29T11:20:45;12.20;99.90
21019;DHT22;10667;51.056;3.732;2023-12-29T11:23:12;12.20;99.90
21019;DHT22;10667;51.056;3.732;2023-12-29T11:25:44;12.20;99.90
21019;DHT22;10667;51.056;3.732;2023-12-29T11:28:11;12.20;99.90
21019;DHT22;10667;51.056;3.732;2023-12-29T11:30:37;12.10;99.90
21019;DHT22;10667;51.056;3.732;2023-12-29T11:35:55;12.10;99.90
21019;DHT22;10667;51.056;3.732;2023-12-29T11:41:17;11.90;99.90
21019;DHT22;10667;51.056;3.732;2023-12-29T11:43:44;12.00;99.90
21019;DHT22;10667;51.056;3.732;2023-12-29T11:49:03;12.10;99.90
21019;DHT22;10667;51.056;3.732;2023-12-29T11:51:33;12.10;99.90
21019;DHT22;10667;51.056;3.732;2023-12-29T11:54:03;12.00;99.90
21019;DHT22;10667;51.056;3.732;2023-12-29T11:56:38;12.10;99.90
21019;DHT22;10667;51.056;3.732;2023-12-29T11:59:16;12.00;99.90
21019;DHT22;10667;51.056;3.732;2023-12-29T12:01:43;12.10;99.90
21019;DHT22;10667;51.056;3.732;2023-12-29T12:07:02;12.10;99.90
21019;DHT22;10667;51.056;3.732;2023-12-29T12:09:28;12.00;99.90
21019;DHT22;10667;51.056;3.732;2023-12-29T12:11:53;12.10;99.90
21019;DHT22;10667;51.056;3.732;2023-12-29T12:17:10;12.10;99.90
21019;DHT22;10667;51.056;3.732;2023-12-29T12:19:36;12.10;99.90
21019;DHT22;10667;51.056;3.732;2023-12-29T12:22:02;12.00;99.90
21019;DHT22;10667;51.056;3.732;2023-12-29T12:24:28;12.00;99.90
21019;DHT22;10667;51.056;3.732;2023-12-29T12:26:57;12.00;99.90
21019;DHT22;10667;51.056;3.732;2023-12-29T12:29:23;12.00;99.90
21019;DHT22;10667;51.056;3.732;2023-12-29T12:31:57;12.00;99.90
21019;DHT22;10667;51.056;3.732;2023-12-29T12:34:24;12.10;99.90
21019;DHT22;10667;51.056;3.732;2023-12-29T12:36:53;12.10;99.90
21019;DHT22;10667;51.056;3.732;2023-12-29T12:39:21;12.20;99.90
21019;DHT22;10667;51.056;3.732;2023-12-29T12:41:48;12.20;99.90
21019;DHT22;10667;51.056;3.732;2023-12-29T12:44:15;12.20;99.90
21019;DHT22;10667;51.056;3.732;2023-12-29T12:49:13;12.20;99.90
21019;DHT22;10667;51.056;3.732;2023-12-29T12:51:39;12.10;99.90
21019;DHT22;10667;51.056;3.732;2023-12-29T12:54:06;12.10;99.90
21019;DHT22;10667;51.056;3.732;2023-12-29T12:56:32;12.10;99.90
21019;DHT22;10667;51.056;3.732;2023-12-29T12:58:58;12.10;99.90
21019;DHT22;10667;51.056;3.732;2023-12-29T13:01:24;12.10;99.90
21019;DHT22;10667;51.056;3.732;2023-12-29T13:03:51;12.10;99.90
21019;DHT22;10667;51.056;3.732;2023-12-29T13:06:17;12.10;99.90
21019;DHT22;10667;51.056;3.732;2023-12-29T13:08:44;12.10;99.90
21019;DHT22;10667;51.056;3.732;2023-12-29T13:11:10;12.20;99.90
21019;DHT22;10667;51.056;3.732;2023-12-29T13:13:41;12.10;99.90
21019;DHT22;10667;51.056;3.732;2023-12-29T13:16:08;12.10;99.90
21019;DHT22;10667;51.056;3.732;2023-12-29T13:18:34;12.10;99.90
21019;DHT22;10667;51.056;3.732;2023-12-29T13:21:01;12.20;99.90
21019;DHT22;10667;51.056;3.732;2023-12-29T13:23:28;12.10;99.90
21019;DHT22;10667;51.056;3.732;2023-12-29T13:25:57;12.20;99.90
21019;DHT22;10667;51.056;3.732;2023-12-29T13:28:25;12.20;99.90
21019;DHT22;10667;51.056;3.732;2023-12-29T13:30:52;12.20;99.90
21019;DHT22;10667;51.056;3.732;2023-12-29T13:33:25;12.20;99.90
21019;DHT22;10667;51.056;3.732;2023-12-29T13:35:58;12.20;99.90
21019;DHT22;10667;51.056;3.732;2023-12-29T13:38:32;12.10;99.90
21019;DHT22;10667;51.056;3.732;2023-12-29T13:41:04;12.10;99.90
21019;DHT22;10667;51.056;3.732;2023-12-29T13:43:32;12.10;99.90
21019;DHT22;10667;51.056;3.732;2023-12-29T13:46:00;12.10;99.90
21019;DHT22;10667;51.056;3.732;2023-12-29T13:48:26;12.20;99.90
21019;DHT22;10667;51.056;3.732;2023-12-29T13:50:52;12.20;99.90
21019;DHT22;10667;51.056;3.732;2023-12-29T13:53:19;12.10;99.90
21019;DHT22;10667;51.056;3.732;2023-12-29T13:55:44;12.20;99.90
21019;DHT22;10667;51.056;3.732;2023-12-29T13:58:10;12.10;99.90
21019;DHT22;10667;51.056;3.732;2023-12-29T14:00:43;12.20;99.90
21019;DHT22;10667;51.056;3.732;2023-12-29T14:03:23;12.20;99.90
21019;DHT22;10667;51.056;3.732;2023-12-29T14:05:56;12.10;99.90
21019;DHT22;10667;51.056;3.732;2023-12-29T14:08:45;12.10;99.90
21019;DHT22;10667;51.056;3.732;2023-12-29T14:11:11;12.10;99.90
21019;DHT22;10667;51.056;3.732;2023-12-29T14:13:44;12.10;99.90
21019;DHT22;10667;51.056;3.732;2023-12-29T14:16:10;12.10;99.90
21019;DHT22;10667;51.056;3.732;2023-12-29T14:21:31;12.00;99.90
21019;DHT22;10667;51.056;3.732;2023-12-29T14:24:08;12.00;99.90
21019;DHT22;10667;51.056;3.732;2023-12-29T14:26:36;11.90;99.90
21019;DHT22;10667;51.056;3.732;2023-12-29T14:29:02;11.90;99.90
21019;DHT22;10667;51.056;3.732;2023-12-29T14:31:35;11.80;99.90
21019;DHT22;10667;51.056;3.732;2023-12-29T14:34:02;11.90;99.90
21019;DHT22;10667;51.056;3.732;2023-12-29T14:36:29;11.90;99.90
21019;DHT22;10667;51.056;3.732;2023-12-29T14:38:55;11.90;99.90
21019;DHT22;10667;51.056;3.732;2023-12-29T14:41:21;12.00;99.90
21019;DHT22;10667;51.056;3.732;2023-12-29T14:43:47;12.10;99.90
21019;DHT22;10667;51.056;3.732;2023-12-29T14:46:12;12.00;99.90
21019;DHT22;10667;51.056;3.732;2023-12-29T14:48:38;12.10;99.90
21019;DHT22;10667;51.056;3.732;2023-12-29T14:51:04;12.10;99.90
21019;DHT22;10667;51.056;3.732;2023-12-29T14:53:30;12.00;99.90
21019;DHT22;10667;51.056;3.732;2023-12-29T14:55:56;11.90;99.90
21019;DHT22;10667;51.056;3.732;2023-12-29T14:58:21;12.00;99.90
21019;DHT22;10667;51.056;3.732;2023-12-29T15:00:47;12.00;99.90
21019;DHT22;10667;51.056;3.732;2023-12-29T15:03:13;12.10;99.90
21019;DHT22;10667;51.056;3.732;2023-12-29T15:05:40;12.20;99.90
21019;DHT22;10667;51.056;3.732;2023-12-29T15:08:06;12.20;99.90
21019;DHT22;10667;51.056;3.732;2023-12-29T15:10:33;12.20;99.90
21019;DHT22;10667;51.056;3.732;2023-12-29T15:12:59;12.20;99.90
21019;DHT22;10667;51.056;3.732;2023-12-29T15:15:24;12.20;99.90
21019;DHT22;10667;51.056;3.732;2023-12-29T15:17:50;12.10;99.90
21019;DHT22;10667;51.056;3.732;2023-12-29T15:20:16;12.20;99.90
21019;DHT22;10667;51.056;3.732;2023-12-29T15:22:41;12.20;99.90
21019;DHT22;10667;51.056;3.732;2023-12-29T15:25:08;12.20;99.90
21019;DHT22;10667;51.056;3.732;2023-12-29T15:27:34;12.10;99.90
21019;DHT22;10667;51.056;3.732;2023-12-29T15:30:00;12.10;99.90
21019;DHT22;10667;51.056;3.732;2023-12-29T15:32:26;12.10;99.90
21019;DHT22;10667;51.056;3.732;2023-12-29T15:34:51;12.10;99.90
21019;DHT22;10667;51.056;3.732;2023-12-29T15:37:17;12.10;99.90
21019;DHT22;10667;51.056;3.732;2023-12-29T15:39:45;12.20;99.90
21019;DHT22;10667;51.056;3.732;2023-12-29T15:42:10;12.20;99.90
21019;DHT22;10667;51.056;3.732;2023-12-29T15:44:36;12.10;99.90
21019;DHT22;10667;51.056;3.732;2023-12-29T15:47:02;12.10;99.90
21019;DHT22;10667;51.056;3.732;2023-12-29T15:49:27;12.00;99.90
21019;DHT22;10667;51.056;3.732;2023-12-29T15:51:53;11.70;99.90
21019;DHT22;10667;51.056;3.732;2023-12-29T15:54:19;11.60;99.90